sensor_id;sensor_type;location;lat;lon;timestamp;P1;durP1;ratioP1;P2;durP2;ratioP2
59271;SDS011;45043;51.068;7.026;2023-07-20T00:02:40;6.23;;;4.40;;
59271;SDS011;45043;51.068;7.026;2023-07-20T00:05:41;9.53;;;5.20;;
59271;SDS011;45043;51.068;7.026;2023-07-20T00:08:41;6.00;;;4.10;;
59271;SDS011;45043;51.068;7.026;2023-07-20T00:11:47;6.50;;;4.00;;
59271;SDS011;45043;51.068;7.026;2023-07-20T00:14:50;6.77;;;4.07;;
59271;SDS011;45043;51.068;7.026;2023-07-20T00:17:53;5.67;;;4.10;;
59271;SDS011;45043;51.068;7.026;2023-07-20T00:20:54;4.87;;;3.87;;
59271;SDS011;45043;51.068;7.026;2023-07-20T00:23:54;5.90;;;3.90;;
59271;SDS011;45043;51.068;7.026;2023-07-20T00:26:55;6.63;;;4.57;;
59271;SDS011;45043;51.068;7.026;2023-07-20T00:29:55;6.27;;;4.20;;
59271;SDS011;45043;51.068;7.026;2023-07-20T00:32:56;7.70;;;4.47;;
59271;SDS011;45043;51.068;7.026;2023-07-20T00:35:57;6.37;;;4.30;;
59271;SDS011;45043;51.068;7.026;2023-07-20T00:38:57;6.53;;;4.60;;
59271;SDS011;45043;51.068;7.026;2023-07-20T00:41:58;6.00;;;3.90;;
59271;SDS011;45043;51.068;7.026;2023-07-20T00:44:58;5.23;;;4.23;;
59271;SDS011;45043;51.068;7.026;2023-07-20T00:47:59;8.33;;;4.40;;
59271;SDS011;45043;51.068;7.026;2023-07-20T00:51:01;6.37;;;4.10;;
59271;SDS011;45043;51.068;7.026;2023-07-20T00:54:02;6.23;;;3.97;;
59271;SDS011;45043;51.068;7.026;2023-07-20T00:57:03;5.90;;;4.07;;
59271;SDS011;45043;51.068;7.026;2023-07-20T01:00:06;7.37;;;4.00;;
59271;SDS011;45043;51.068;7.026;2023-07-20T01:03:07;4.77;;;3.80;;
59271;SDS011;45043;51.068;7.026;2023-07-20T01:09:24;7.57;;;4.17;;
59271;SDS011;45043;51.068;7.026;2023-07-20T01:15:38;6.33;;;4.50;;
59271;SDS011;45043;51.068;7.026;2023-07-20T01:18:39;7.03;;;4.10;;
59271;SDS011;45043;51.068;7.026;2023-07-20T01:21:41;6.03;;;3.87;;
59271;SDS011;45043;51.068;7.026;2023-07-20T01:25:11;5.63;;;4.10;;
59271;SDS011;45043;51.068;7.026;2023-07-20T01:31:44;9.03;;;3.87;;
59271;SDS011;45043;51.068;7.026;2023-07-20T01:34:45;6.73;;;4.30;;
59271;SDS011;45043;51.068;7.026;2023-07-20T01:37:49;5.27;;;3.93;;
59271;SDS011;45043;51.068;7.026;2023-07-20T01:40:51;6.40;;;3.77;;
59271;SDS011;45043;51.068;7.026;2023-07-20T01:43:52;8.47;;;4.20;;
59271;SDS011;45043;51.068;7.026;2023-07-20T01:46:52;8.27;;;4.47;;
59271;SDS011;45043;51.068;7.026;2023-07-20T01:49:53;9.20;;;4.40;;
59271;SDS011;45043;51.068;7.026;2023-07-20T01:52:53;6.47;;;4.20;;
59271;SDS011;45043;51.068;7.026;2023-07-20T01:55:54;5.53;;;4.10;;
59271;SDS011;45043;51.068;7.026;2023-07-20T01:58:55;8.07;;;4.20;;
59271;SDS011;45043;51.068;7.026;2023-07-20T02:01:55;5.67;;;3.73;;
59271;SDS011;45043;51.068;7.026;2023-07-20T02:04:56;6.70;;;4.17;;
59271;SDS011;45043;51.068;7.026;2023-07-20T02:07:56;5.03;;;4.20;;
59271;SDS011;45043;51.068;7.026;2023-07-20T02:10:57;6.80;;;4.07;;
59271;SDS011;45043;51.068;7.026;2023-07-20T02:13:57;5.50;;;3.73;;
59271;SDS011;45043;51.068;7.026;2023-07-20T02:16:58;5.00;;;3.90;;
59271;SDS011;45043;51.068;7.026;2023-07-20T02:20:02;5.57;;;3.57;;
59271;SDS011;45043;51.068;7.026;2023-07-20T02:23:03;6.13;;;3.87;;
59271;SDS011;45043;51.068;7.026;2023-07-20T02:26:03;6.80;;;3.97;;
59271;SDS011;45043;51.068;7.026;2023-07-20T02:29:04;6.03;;;3.60;;
59271;SDS011;45043;51.068;7.026;2023-07-20T02:32:08;6.57;;;4.10;;
59271;SDS011;45043;51.068;7.026;2023-07-20T02:35:12;7.17;;;4.00;;
59271;SDS011;45043;51.068;7.026;2023-07-20T02:38:13;5.33;;;4.00;;
59271;SDS011;45043;51.068;7.026;2023-07-20T02:41:13;5.47;;;3.87;;
59271;SDS011;45043;51.068;7.026;2023-07-20T02:44:14;5.83;;;4.07;;
59271;SDS011;45043;51.068;7.026;2023-07-20T02:47:15;6.27;;;3.87;;
59271;SDS011;45043;51.068;7.026;2023-07-20T02:50:15;4.67;;;4.17;;
59271;SDS011;45043;51.068;7.026;2023-07-20T02:53:16;5.83;;;4.37;;
59271;SDS011;45043;51.068;7.026;2023-07-20T02:56:16;5.60;;;3.73;;
59271;SDS011;45043;51.068;7.026;2023-07-20T02:59:18;5.83;;;4.23;;
59271;SDS011;45043;51.068;7.026;2023-07-20T03:02:19;5.87;;;4.00;;
59271;SDS011;45043;51.068;7.026;2023-07-20T03:05:19;6.27;;;4.20;;
59271;SDS011;45043;51.068;7.026;2023-07-20T03:08:20;4.50;;;4.10;;
59271;SDS011;45043;51.068;7.026;2023-07-20T03:11:21;4.53;;;3.90;;
59271;SDS011;45043;51.068;7.026;2023-07-20T03:14:21;5.43;;;4.47;;
59271;SDS011;45043;51.068;7.026;2023-07-20T03:17:24;6.83;;;4.33;;
59271;SDS011;45043;51.068;7.026;2023-07-20T03:20:24;6.60;;;4.10;;
59271;SDS011;45043;51.068;7.026;2023-07-20T03:23:26;7.87;;;4.03;;
59271;SDS011;45043;51.068;7.026;2023-07-20T03:26:26;6.43;;;4.63;;
59271;SDS011;45043;51.068;7.026;2023-07-20T03:29:27;5.93;;;4.30;;
59271;SDS011;45043;51.068;7.026;2023-07-20T03:32:28;5.77;;;4.77;;
59271;SDS011;45043;51.068;7.026;2023-07-20T03:35:28;6.87;;;4.27;;
59271;SDS011;45043;51.068;7.026;2023-07-20T03:38:29;7.97;;;4.50;;
59271;SDS011;45043;51.068;7.026;2023-07-20T03:41:29;8.27;;;4.70;;
59271;SDS011;45043;51.068;7.026;2023-07-20T03:44:30;5.03;;;4.30;;
59271;SDS011;45043;51.068;7.026;2023-07-20T03:47:30;6.67;;;4.73;;
59271;SDS011;45043;51.068;7.026;2023-07-20T03:50:31;8.70;;;4.87;;
59271;SDS011;45043;51.068;7.026;2023-07-20T03:53:33;8.67;;;4.73;;
59271;SDS011;45043;51.068;7.026;2023-07-20T03:56:34;6.57;;;4.43;;
59271;SDS011;45043;51.068;7.026;2023-07-20T03:59:36;6.13;;;4.40;;
59271;SDS011;45043;51.068;7.026;2023-07-20T04:02:37;8.03;;;4.80;;
59271;SDS011;45043;51.068;7.026;2023-07-20T04:05:38;8.27;;;4.50;;
59271;SDS011;45043;51.068;7.026;2023-07-20T04:08:39;7.10;;;4.97;;
59271;SDS011;45043;51.068;7.026;2023-07-20T04:11:40;6.77;;;4.73;;
59271;SDS011;45043;51.068;7.026;2023-07-20T04:14:40;10.07;;;5.00;;
59271;SDS011;45043;51.068;7.026;2023-07-20T04:17:41;8.10;;;4.93;;
59271;SDS011;45043;51.068;7.026;2023-07-20T04:20:41;5.50;;;4.90;;
59271;SDS011;45043;51.068;7.026;2023-07-20T04:23:42;6.87;;;4.13;;
59271;SDS011;45043;51.068;7.026;2023-07-20T04:26:43;6.53;;;4.00;;
59271;SDS011;45043;51.068;7.026;2023-07-20T04:29:44;4.70;;;4.20;;
59271;SDS011;45043;51.068;7.026;2023-07-20T04:32:44;8.63;;;3.73;;
59271;SDS011;45043;51.068;7.026;2023-07-20T04:38:55;5.23;;;3.90;;
59271;SDS011;45043;51.068;7.026;2023-07-20T04:41:57;5.70;;;4.37;;
59271;SDS011;45043;51.068;7.026;2023-07-20T04:44:58;12.80;;;4.60;;
59271;SDS011;45043;51.068;7.026;2023-07-20T04:47:59;6.43;;;4.00;;
59271;SDS011;45043;51.068;7.026;2023-07-20T04:51:00;9.30;;;5.07;;
59271;SDS011;45043;51.068;7.026;2023-07-20T04:54:01;8.37;;;4.40;;
59271;SDS011;45043;51.068;7.026;2023-07-20T04:57:11;8.77;;;5.00;;
59271;SDS011;45043;51.068;7.026;2023-07-20T05:00:18;6.77;;;4.57;;
59271;SDS011;45043;51.068;7.026;2023-07-20T05:03:19;8.77;;;5.10;;
59271;SDS011;45043;51.068;7.026;2023-07-20T05:06:20;9.20;;;5.47;;
59271;SDS011;45043;51.068;7.026;2023-07-20T05:09:20;9.37;;;6.07;;
59271;SDS011;45043;51.068;7.026;2023-07-20T05:12:20;7.53;;;5.40;;
59271;SDS011;45043;51.068;7.026;2023-07-20T05:15:21;7.17;;;4.67;;
59271;SDS011;45043;51.068;7.026;2023-07-20T05:18:23;7.43;;;5.77;;
59271;SDS011;45043;51.068;7.026;2023-07-20T05:21:24;9.70;;;6.40;;
59271;SDS011;45043;51.068;7.026;2023-07-20T05:24:25;8.10;;;6.70;;
59271;SDS011;45043;51.068;7.026;2023-07-20T05:27:25;10.30;;;6.07;;
59271;SDS011;45043;51.068;7.026;2023-07-20T05:30:26;10.90;;;5.97;;
59271;SDS011;45043;51.068;7.026;2023-07-20T05:33:26;8.50;;;6.67;;
59271;SDS011;45043;51.068;7.026;2023-07-20T05:36:26;7.80;;;6.00;;
59271;SDS011;45043;51.068;7.026;2023-07-20T05:39:27;9.47;;;7.47;;
59271;SDS011;45043;51.068;7.026;2023-07-20T05:42:28;12.43;;;8.80;;
59271;SDS011;45043;51.068;7.026;2023-07-20T05:45:28;11.17;;;8.30;;
59271;SDS011;45043;51.068;7.026;2023-07-20T05:48:29;10.87;;;7.57;;
59271;SDS011;45043;51.068;7.026;2023-07-20T05:51:29;11.33;;;7.70;;
59271;SDS011;45043;51.068;7.026;2023-07-20T05:54:30;12.30;;;8.80;;
59271;SDS011;45043;51.068;7.026;2023-07-20T05:57:30;11.50;;;8.83;;
59271;SDS011;45043;51.068;7.026;2023-07-20T06:00:30;10.83;;;7.93;;
59271;SDS011;45043;51.068;7.026;2023-07-20T06:03:32;9.80;;;6.93;;
59271;SDS011;45043;51.068;7.026;2023-07-20T06:06:34;9.30;;;7.37;;
59271;SDS011;45043;51.068;7.026;2023-07-20T06:09:34;13.43;;;11.17;;
59271;SDS011;45043;51.068;7.026;2023-07-20T06:12:35;11.10;;;10.00;;
59271;SDS011;45043;51.068;7.026;2023-07-20T06:15:36;10.53;;;9.20;;
59271;SDS011;45043;51.068;7.026;2023-07-20T06:18:36;12.67;;;10.90;;
59271;SDS011;45043;51.068;7.026;2023-07-20T06:21:37;11.17;;;9.83;;
59271;SDS011;45043;51.068;7.026;2023-07-20T06:24:38;12.57;;;11.27;;
59271;SDS011;45043;51.068;7.026;2023-07-20T06:27:38;13.07;;;10.20;;
59271;SDS011;45043;51.068;7.026;2023-07-20T06:30:39;11.73;;;10.53;;
59271;SDS011;45043;51.068;7.026;2023-07-20T06:33:39;14.37;;;12.87;;
59271;SDS011;45043;51.068;7.026;2023-07-20T06:36:40;13.70;;;11.37;;
59271;SDS011;45043;51.068;7.026;2023-07-20T06:39:40;12.53;;;11.43;;
59271;SDS011;45043;51.068;7.026;2023-07-20T06:42:41;13.50;;;11.70;;
59271;SDS011;45043;51.068;7.026;2023-07-20T06:45:41;12.20;;;10.60;;
59271;SDS011;45043;51.068;7.026;2023-07-20T06:48:42;10.97;;;9.87;;
59271;SDS011;45043;51.068;7.026;2023-07-20T06:51:43;10.73;;;9.63;;
59271;SDS011;45043;51.068;7.026;2023-07-20T06:54:43;12.43;;;10.87;;
59271;SDS011;45043;51.068;7.026;2023-07-20T06:57:44;9.87;;;8.87;;
59271;SDS011;45043;51.068;7.026;2023-07-20T07:00:45;13.80;;;12.60;;
59271;SDS011;45043;51.068;7.026;2023-07-20T07:03:45;11.30;;;10.10;;
59271;SDS011;45043;51.068;7.026;2023-07-20T07:06:46;11.20;;;10.07;;
59271;SDS011;45043;51.068;7.026;2023-07-20T07:09:47;10.40;;;9.43;;
59271;SDS011;45043;51.068;7.026;2023-07-20T07:12:47;11.77;;;10.57;;
59271;SDS011;45043;51.068;7.026;2023-07-20T07:15:48;11.60;;;10.50;;
59271;SDS011;45043;51.068;7.026;2023-07-20T07:18:49;11.80;;;10.70;;
59271;SDS011;45043;51.068;7.026;2023-07-20T07:21:51;11.87;;;10.70;;
59271;SDS011;45043;51.068;7.026;2023-07-20T07:24:51;10.57;;;9.40;;
59271;SDS011;45043;51.068;7.026;2023-07-20T07:27:52;11.37;;;9.40;;
59271;SDS011;45043;51.068;7.026;2023-07-20T07:30:54;11.43;;;9.60;;
59271;SDS011;45043;51.068;7.026;2023-07-20T07:33:57;9.00;;;7.00;;
59271;SDS011;45043;51.068;7.026;2023-07-20T07:36:57;12.13;;;8.90;;
59271;SDS011;45043;51.068;7.026;2023-07-20T07:39:59;11.23;;;10.10;;
59271;SDS011;45043;51.068;7.026;2023-07-20T07:42:59;11.53;;;10.33;;
59271;SDS011;45043;51.068;7.026;2023-07-20T07:45:59;10.67;;;9.73;;
59271;SDS011;45043;51.068;7.026;2023-07-20T07:49:00;12.40;;;10.97;;
59271;SDS011;45043;51.068;7.026;2023-07-20T07:52:04;9.47;;;7.90;;
59271;SDS011;45043;51.068;7.026;2023-07-20T07:55:04;8.73;;;7.93;;
59271;SDS011;45043;51.068;7.026;2023-07-20T07:58:06;9.03;;;8.13;;
59271;SDS011;45043;51.068;7.026;2023-07-20T08:01:06;7.70;;;6.90;;
59271;SDS011;45043;51.068;7.026;2023-07-20T08:04:06;12.30;;;7.77;;
59271;SDS011;45043;51.068;7.026;2023-07-20T08:07:08;6.73;;;6.00;;
59271;SDS011;45043;51.068;7.026;2023-07-20T08:10:09;8.10;;;6.90;;
59271;SDS011;45043;51.068;7.026;2023-07-20T08:13:10;10.47;;;6.67;;
59271;SDS011;45043;51.068;7.026;2023-07-20T08:16:10;6.40;;;5.20;;
59271;SDS011;45043;51.068;7.026;2023-07-20T08:19:11;6.03;;;5.43;;
59271;SDS011;45043;51.068;7.026;2023-07-20T08:22:11;8.43;;;5.57;;
59271;SDS011;45043;51.068;7.026;2023-07-20T08:25:12;5.70;;;4.40;;
59271;SDS011;45043;51.068;7.026;2023-07-20T08:28:16;3.40;;;2.93;;
59271;SDS011;45043;51.068;7.026;2023-07-20T08:31:17;3.60;;;2.80;;
59271;SDS011;45043;51.068;7.026;2023-07-20T08:34:21;3.43;;;3.13;;
59271;SDS011;45043;51.068;7.026;2023-07-20T08:37:22;2.73;;;2.50;;
59271;SDS011;45043;51.068;7.026;2023-07-20T08:40:22;3.23;;;2.50;;
59271;SDS011;45043;51.068;7.026;2023-07-20T08:43:23;4.63;;;3.03;;
59271;SDS011;45043;51.068;7.026;2023-07-20T08:46:24;5.40;;;4.90;;
59271;SDS011;45043;51.068;7.026;2023-07-20T08:49:26;6.70;;;4.83;;
59271;SDS011;45043;51.068;7.026;2023-07-20T08:52:27;6.27;;;4.53;;
59271;SDS011;45043;51.068;7.026;2023-07-20T08:55:30;4.77;;;3.93;;
59271;SDS011;45043;51.068;7.026;2023-07-20T08:58:31;8.63;;;4.20;;
59271;SDS011;45043;51.068;7.026;2023-07-20T09:01:35;3.97;;;3.57;;
59271;SDS011;45043;51.068;7.026;2023-07-20T09:04:39;3.57;;;2.90;;
59271;SDS011;45043;51.068;7.026;2023-07-20T09:07:39;4.33;;;3.57;;
59271;SDS011;45043;51.068;7.026;2023-07-20T09:10:40;3.93;;;3.10;;
59271;SDS011;45043;51.068;7.026;2023-07-20T09:13:41;3.40;;;3.07;;
59271;SDS011;45043;51.068;7.026;2023-07-20T09:16:54;3.87;;;2.50;;
59271;SDS011;45043;51.068;7.026;2023-07-20T09:19:55;2.63;;;2.30;;
59271;SDS011;45043;51.068;7.026;2023-07-20T09:22:56;3.60;;;2.60;;
59271;SDS011;45043;51.068;7.026;2023-07-20T09:25:57;3.57;;;2.60;;
59271;SDS011;45043;51.068;7.026;2023-07-20T09:28:58;3.47;;;2.00;;
59271;SDS011;45043;51.068;7.026;2023-07-20T09:35:00;3.40;;;2.50;;
59271;SDS011;45043;51.068;7.026;2023-07-20T09:38:01;6.30;;;3.80;;
59271;SDS011;45043;51.068;7.026;2023-07-20T09:41:02;3.10;;;2.20;;
59271;SDS011;45043;51.068;7.026;2023-07-20T09:44:05;3.00;;;2.20;;
59271;SDS011;45043;51.068;7.026;2023-07-20T09:47:08;2.53;;;2.27;;
59271;SDS011;45043;51.068;7.026;2023-07-20T09:50:08;2.60;;;1.83;;
59271;SDS011;45043;51.068;7.026;2023-07-20T09:53:11;2.73;;;2.07;;
59271;SDS011;45043;51.068;7.026;2023-07-20T09:56:16;1.80;;;1.70;;
59271;SDS011;45043;51.068;7.026;2023-07-20T09:59:20;3.10;;;1.90;;
59271;SDS011;45043;51.068;7.026;2023-07-20T10:02:22;3.77;;;2.80;;
59271;SDS011;45043;51.068;7.026;2023-07-20T10:05:32;3.93;;;1.80;;
59271;SDS011;45043;51.068;7.026;2023-07-20T10:08:40;3.60;;;1.43;;
59271;SDS011;45043;51.068;7.026;2023-07-20T10:11:43;3.00;;;1.63;;
59271;SDS011;45043;51.068;7.026;2023-07-20T10:14:52;4.00;;;3.33;;
59271;SDS011;45043;51.068;7.026;2023-07-20T10:21:03;1.60;;;1.30;;
59271;SDS011;45043;51.068;7.026;2023-07-20T10:24:07;2.47;;;1.97;;
59271;SDS011;45043;51.068;7.026;2023-07-20T10:27:09;3.37;;;2.50;;
59271;SDS011;45043;51.068;7.026;2023-07-20T10:30:09;1.50;;;1.30;;
59271;SDS011;45043;51.068;7.026;2023-07-20T10:33:10;2.50;;;2.30;;
59271;SDS011;45043;51.068;7.026;2023-07-20T10:36:11;3.23;;;2.93;;
59271;SDS011;45043;51.068;7.026;2023-07-20T10:39:22;2.40;;;2.20;;
59271;SDS011;45043;51.068;7.026;2023-07-20T10:42:24;3.23;;;2.87;;
59271;SDS011;45043;51.068;7.026;2023-07-20T10:45:37;2.57;;;2.37;;
59271;SDS011;45043;51.068;7.026;2023-07-20T10:48:58;3.80;;;2.97;;
59271;SDS011;45043;51.068;7.026;2023-07-20T10:52:03;2.37;;;2.13;;
59271;SDS011;45043;51.068;7.026;2023-07-20T10:55:10;2.30;;;1.63;;
59271;SDS011;45043;51.068;7.026;2023-07-20T10:58:17;2.23;;;2.03;;
59271;SDS011;45043;51.068;7.026;2023-07-20T11:01:17;3.00;;;1.80;;
59271;SDS011;45043;51.068;7.026;2023-07-20T11:04:18;4.00;;;2.07;;
59271;SDS011;45043;51.068;7.026;2023-07-20T11:07:36;2.43;;;2.23;;
59271;SDS011;45043;51.068;7.026;2023-07-20T11:10:40;3.00;;;2.70;;
59271;SDS011;45043;51.068;7.026;2023-07-20T11:13:53;3.30;;;2.40;;
59271;SDS011;45043;51.068;7.026;2023-07-20T11:16:56;2.47;;;2.20;;
59271;SDS011;45043;51.068;7.026;2023-07-20T11:20:11;1.60;;;1.50;;
59271;SDS011;45043;51.068;7.026;2023-07-20T11:23:13;2.20;;;1.53;;
59271;SDS011;45043;51.068;7.026;2023-07-20T11:26:14;1.73;;;1.40;;
59271;SDS011;45043;51.068;7.026;2023-07-20T11:29:16;1.87;;;1.23;;
59271;SDS011;45043;51.068;7.026;2023-07-20T11:32:21;1.67;;;1.57;;
59271;SDS011;45043;51.068;7.026;2023-07-20T11:35:22;2.53;;;1.73;;
59271;SDS011;45043;51.068;7.026;2023-07-20T11:38:23;2.17;;;1.90;;
59271;SDS011;45043;51.068;7.026;2023-07-20T11:41:24;2.83;;;2.23;;
59271;SDS011;45043;51.068;7.026;2023-07-20T11:44:26;3.00;;;2.70;;
59271;SDS011;45043;51.068;7.026;2023-07-20T11:47:29;3.80;;;2.37;;
59271;SDS011;45043;51.068;7.026;2023-07-20T11:50:29;2.23;;;1.77;;
59271;SDS011;45043;51.068;7.026;2023-07-20T11:53:30;7.03;;;5.60;;
59271;SDS011;45043;51.068;7.026;2023-07-20T11:56:31;1.60;;;1.50;;
59271;SDS011;45043;51.068;7.026;2023-07-20T11:59:31;1.70;;;1.60;;
59271;SDS011;45043;51.068;7.026;2023-07-20T12:02:32;1.90;;;1.80;;
59271;SDS011;45043;51.068;7.026;2023-07-20T12:05:33;2.23;;;1.60;;
59271;SDS011;45043;51.068;7.026;2023-07-20T12:08:35;1.83;;;1.50;;
59271;SDS011;45043;51.068;7.026;2023-07-20T12:11:38;2.27;;;1.30;;
59271;SDS011;45043;51.068;7.026;2023-07-20T12:14:39;1.40;;;1.30;;
59271;SDS011;45043;51.068;7.026;2023-07-20T12:17:46;2.77;;;1.37;;
59271;SDS011;45043;51.068;7.026;2023-07-20T12:20:49;1.50;;;1.40;;
59271;SDS011;45043;51.068;7.026;2023-07-20T12:23:59;1.87;;;1.40;;
59271;SDS011;45043;51.068;7.026;2023-07-20T12:27:00;1.57;;;1.47;;
59271;SDS011;45043;51.068;7.026;2023-07-20T12:30:00;2.00;;;1.90;;
59271;SDS011;45043;51.068;7.026;2023-07-20T12:33:01;5.03;;;2.13;;
59271;SDS011;45043;51.068;7.026;2023-07-20T12:36:03;2.60;;;2.40;;
59271;SDS011;45043;51.068;7.026;2023-07-20T12:39:04;3.13;;;1.47;;
59271;SDS011;45043;51.068;7.026;2023-07-20T12:42:05;1.70;;;1.60;;
59271;SDS011;45043;51.068;7.026;2023-07-20T12:45:06;2.30;;;1.67;;
59271;SDS011;45043;51.068;7.026;2023-07-20T12:48:06;2.27;;;1.90;;
59271;SDS011;45043;51.068;7.026;2023-07-20T12:51:07;2.00;;;1.60;;
59271;SDS011;45043;51.068;7.026;2023-07-20T12:54:09;1.50;;;1.40;;
59271;SDS011;45043;51.068;7.026;2023-07-20T12:57:09;1.30;;;1.20;;
59271;SDS011;45043;51.068;7.026;2023-07-20T13:00:10;2.60;;;1.50;;
59271;SDS011;45043;51.068;7.026;2023-07-20T13:03:11;1.90;;;1.80;;
59271;SDS011;45043;51.068;7.026;2023-07-20T13:06:12;1.60;;;1.50;;
59271;SDS011;45043;51.068;7.026;2023-07-20T13:09:12;1.60;;;1.50;;
59271;SDS011;45043;51.068;7.026;2023-07-20T13:12:13;2.30;;;1.40;;
59271;SDS011;45043;51.068;7.026;2023-07-20T13:15:14;5.77;;;4.13;;
59271;SDS011;45043;51.068;7.026;2023-07-20T13:18:14;1.50;;;1.40;;
59271;SDS011;45043;51.068;7.026;2023-07-20T13:21:15;1.83;;;1.47;;
59271;SDS011;45043;51.068;7.026;2023-07-20T13:24:15;2.30;;;1.60;;
59271;SDS011;45043;51.068;7.026;2023-07-20T13:27:16;1.97;;;1.37;;
59271;SDS011;45043;51.068;7.026;2023-07-20T13:30:18;2.00;;;1.60;;
59271;SDS011;45043;51.068;7.026;2023-07-20T13:33:18;1.93;;;1.67;;
59271;SDS011;45043;51.068;7.026;2023-07-20T13:36:19;2.80;;;2.10;;
59271;SDS011;45043;51.068;7.026;2023-07-20T13:39:21;1.50;;;1.40;;
59271;SDS011;45043;51.068;7.026;2023-07-20T13:42:24;1.97;;;1.60;;
59271;SDS011;45043;51.068;7.026;2023-07-20T13:45:24;4.27;;;2.10;;
59271;SDS011;45043;51.068;7.026;2023-07-20T13:48:25;3.60;;;2.40;;
59271;SDS011;45043;51.068;7.026;2023-07-20T13:51:26;1.60;;;1.50;;
59271;SDS011;45043;51.068;7.026;2023-07-20T13:54:27;2.80;;;1.60;;
59271;SDS011;45043;51.068;7.026;2023-07-20T13:57:28;3.07;;;2.40;;
59271;SDS011;45043;51.068;7.026;2023-07-20T14:00:28;3.17;;;1.73;;
59271;SDS011;45043;51.068;7.026;2023-07-20T14:03:32;2.17;;;1.80;;
59271;SDS011;45043;51.068;7.026;2023-07-20T14:06:33;2.50;;;1.50;;
59271;SDS011;45043;51.068;7.026;2023-07-20T14:09:34;2.23;;;1.50;;
59271;SDS011;45043;51.068;7.026;2023-07-20T14:12:34;2.50;;;1.70;;
59271;SDS011;45043;51.068;7.026;2023-07-20T14:15:35;2.17;;;1.60;;
59271;SDS011;45043;51.068;7.026;2023-07-20T14:18:35;1.83;;;1.30;;
59271;SDS011;45043;51.068;7.026;2023-07-20T14:21:36;2.10;;;1.73;;
59271;SDS011;45043;51.068;7.026;2023-07-20T14:24:36;1.83;;;1.40;;
59271;SDS011;45043;51.068;7.026;2023-07-20T14:27:37;1.70;;;1.60;;
59271;SDS011;45043;51.068;7.026;2023-07-20T14:30:37;1.90;;;1.80;;
59271;SDS011;45043;51.068;7.026;2023-07-20T14:33:38;1.40;;;1.30;;
59271;SDS011;45043;51.068;7.026;2023-07-20T14:36:38;1.80;;;1.37;;
59271;SDS011;45043;51.068;7.026;2023-07-20T14:39:38;1.60;;;1.50;;
59271;SDS011;45043;51.068;7.026;2023-07-20T14:42:39;2.33;;;1.37;;
59271;SDS011;45043;51.068;7.026;2023-07-20T14:45:40;1.93;;;1.80;;
59271;SDS011;45043;51.068;7.026;2023-07-20T14:48:42;3.17;;;1.73;;
59271;SDS011;45043;51.068;7.026;2023-07-20T14:51:42;1.40;;;1.30;;
59271;SDS011;45043;51.068;7.026;2023-07-20T14:54:46;2.70;;;1.50;;
59271;SDS011;45043;51.068;7.026;2023-07-20T14:57:50;6.57;;;4.63;;
59271;SDS011;45043;51.068;7.026;2023-07-20T15:00:51;8.30;;;7.13;;
59271;SDS011;45043;51.068;7.026;2023-07-20T15:03:51;3.03;;;2.73;;
59271;SDS011;45043;51.068;7.026;2023-07-20T15:06:53;3.27;;;2.60;;
59271;SDS011;45043;51.068;7.026;2023-07-20T15:09:54;2.77;;;2.40;;
59271;SDS011;45043;51.068;7.026;2023-07-20T15:12:55;3.30;;;1.70;;
59271;SDS011;45043;51.068;7.026;2023-07-20T15:15:56;2.67;;;1.70;;
59271;SDS011;45043;51.068;7.026;2023-07-20T15:18:57;2.47;;;1.60;;
59271;SDS011;45043;51.068;7.026;2023-07-20T15:21:57;2.70;;;1.60;;
59271;SDS011;45043;51.068;7.026;2023-07-20T15:24:58;2.10;;;1.88;;
59271;SDS011;45043;51.068;7.026;2023-07-20T15:27:59;2.22;;;2.03;;
59271;SDS011;45043;51.068;7.026;2023-07-20T15:31:00;2.67;;;1.77;;
59271;SDS011;45043;51.068;7.026;2023-07-20T15:34:02;1.30;;;1.20;;
59271;SDS011;45043;51.068;7.026;2023-07-20T15:37:02;2.53;;;1.60;;
59271;SDS011;45043;51.068;7.026;2023-07-20T15:40:08;2.50;;;1.70;;
59271;SDS011;45043;51.068;7.026;2023-07-20T15:43:09;1.87;;;1.60;;
59271;SDS011;45043;51.068;7.026;2023-07-20T15:46:43;1.83;;;1.60;;
59271;SDS011;45043;51.068;7.026;2023-07-20T15:49:39;1.90;;;1.70;;
59271;SDS011;45043;51.068;7.026;2023-07-20T15:52:40;2.85;;;1.70;;
59271;SDS011;45043;51.068;7.026;2023-07-20T15:55:42;2.20;;;2.00;;
59271;SDS011;45043;51.068;7.026;2023-07-20T15:58:42;6.18;;;1.92;;
59271;SDS011;45043;51.068;7.026;2023-07-20T16:01:43;2.10;;;1.70;;
59271;SDS011;45043;51.068;7.026;2023-07-20T16:04:43;2.67;;;1.60;;
59271;SDS011;45043;51.068;7.026;2023-07-20T16:07:45;1.77;;;1.67;;
59271;SDS011;45043;51.068;7.026;2023-07-20T16:10:47;1.85;;;1.67;;
59271;SDS011;45043;51.068;7.026;2023-07-20T16:13:48;1.73;;;1.63;;
59271;SDS011;45043;51.068;7.026;2023-07-20T16:16:49;1.70;;;1.55;;
59271;SDS011;45043;51.068;7.026;2023-07-20T16:19:49;1.80;;;1.70;;
59271;SDS011;45043;51.068;7.026;2023-07-20T16:22:50;1.85;;;1.70;;
59271;SDS011;45043;51.068;7.026;2023-07-20T16:25:50;2.25;;;1.70;;
59271;SDS011;45043;51.068;7.026;2023-07-20T16:28:52;3.67;;;1.70;;
59271;SDS011;45043;51.068;7.026;2023-07-20T16:31:52;3.60;;;1.98;;
59271;SDS011;45043;51.068;7.026;2023-07-20T16:34:52;2.45;;;1.90;;
59271;SDS011;45043;51.068;7.026;2023-07-20T16:37:54;4.72;;;3.72;;
59271;SDS011;45043;51.068;7.026;2023-07-20T16:40:56;4.10;;;3.70;;
59271;SDS011;45043;51.068;7.026;2023-07-20T16:43:57;3.58;;;3.38;;
59271;SDS011;45043;51.068;7.026;2023-07-20T16:46:57;2.25;;;2.05;;
59271;SDS011;45043;51.068;7.026;2023-07-20T16:49:58;2.88;;;2.03;;
59271;SDS011;45043;51.068;7.026;2023-07-20T16:52:58;3.58;;;3.33;;
59271;SDS011;45043;51.068;7.026;2023-07-20T16:55:59;2.53;;;2.25;;
59271;SDS011;45043;51.068;7.026;2023-07-20T16:58:59;1.98;;;1.88;;
59271;SDS011;45043;51.068;7.026;2023-07-20T17:01:59;1.80;;;1.70;;
59271;SDS011;45043;51.068;7.026;2023-07-20T17:05:00;1.77;;;1.58;;
59271;SDS011;45043;51.068;7.026;2023-07-20T17:08:01;2.40;;;1.50;;
59271;SDS011;45043;51.068;7.026;2023-07-20T17:11:01;1.65;;;1.40;;
59271;SDS011;45043;51.068;7.026;2023-07-20T17:14:03;2.35;;;2.15;;
59271;SDS011;45043;51.068;7.026;2023-07-20T17:17:04;2.78;;;2.22;;
59271;SDS011;45043;51.068;7.026;2023-07-20T17:20:05;2.95;;;2.53;;
59271;SDS011;45043;51.068;7.026;2023-07-20T17:23:06;4.15;;;2.83;;
59271;SDS011;45043;51.068;7.026;2023-07-20T17:26:06;3.80;;;2.83;;
59271;SDS011;45043;51.068;7.026;2023-07-20T17:29:07;4.65;;;3.60;;
59271;SDS011;45043;51.068;7.026;2023-07-20T17:32:08;5.35;;;3.53;;
59271;SDS011;45043;51.068;7.026;2023-07-20T17:35:09;3.83;;;3.53;;
59271;SDS011;45043;51.068;7.026;2023-07-20T17:38:13;3.10;;;2.90;;
59271;SDS011;45043;51.068;7.026;2023-07-20T17:41:13;3.72;;;3.40;;
59271;SDS011;45043;51.068;7.026;2023-07-20T17:44:15;3.92;;;3.63;;
59271;SDS011;45043;51.068;7.026;2023-07-20T17:47:16;4.40;;;4.00;;
59271;SDS011;45043;51.068;7.026;2023-07-20T17:50:17;4.25;;;3.95;;
59271;SDS011;45043;51.068;7.026;2023-07-20T17:53:17;3.40;;;3.10;;
59271;SDS011;45043;51.068;7.026;2023-07-20T17:56:18;2.55;;;2.30;;
59271;SDS011;45043;51.068;7.026;2023-07-20T17:59:18;2.40;;;2.20;;
59271;SDS011;45043;51.068;7.026;2023-07-20T18:02:19;3.47;;;2.70;;
59271;SDS011;45043;51.068;7.026;2023-07-20T18:05:20;2.72;;;2.50;;
59271;SDS011;45043;51.068;7.026;2023-07-20T18:08:20;2.35;;;2.22;;
59271;SDS011;45043;51.068;7.026;2023-07-20T18:11:21;2.85;;;2.20;;
59271;SDS011;45043;51.068;7.026;2023-07-20T18:14:22;2.00;;;1.90;;
59271;SDS011;45043;51.068;7.026;2023-07-20T18:17:23;2.60;;;2.40;;
59271;SDS011;45043;51.068;7.026;2023-07-20T18:20:23;3.30;;;2.83;;
59271;SDS011;45043;51.068;7.026;2023-07-20T18:23:24;2.90;;;2.70;;
59271;SDS011;45043;51.068;7.026;2023-07-20T18:26:24;3.05;;;2.35;;
59271;SDS011;45043;51.068;7.026;2023-07-20T18:29:25;2.35;;;2.15;;
59271;SDS011;45043;51.068;7.026;2023-07-20T18:32:25;3.20;;;1.80;;